KGDV/GDV METAR and TAF weather

Enter ICAO airport designator
Station Type Date Time Source
KGDV METAR 2019/02/22 22:56 UTC NOAA

KGDV 222256Z AUTO 19004KT 10SM CLR M12/M16 A2994 RMK AO2 SLP203 T11171156 FZRANO


Station Type Date Time Source
KGDV Decoded METAR 2019/02/22 22:56 UTC NOAA

Glendive, Dawson Community Airport, MT, United States (KGDV) 47-08N 104-48W
Feb 22, 2019 - 05:56 PM EST / 2019.02.22 2256 UTC
Wind: from the S (190 degrees) at 5 MPH (4 KT):0
Visibility: 10 mile(s):0
Sky conditions: clear
Temperature: 10.9 F (-11.7 C)
Windchill: 1 F (-17 C):1
Dew Point: 3.9 F (-15.6 C)
Relative Humidity: 72%
Pressure (altimeter): 29.94 in. Hg (1013 hPa)
ob: KGDV 222256Z AUTO 19004KT 10SM CLR M12/M16 A2994 RMK AO2 SLP203 T11171156 FZRANO
cycle: 23

Station Type Date Time Source
KGDV TAF 2019/02/22 18:24 UTC NOAA

TAF KGDV 221723Z 2218/2318 VRB04KT P6SM FEW050
FM230300 VRB05KT 4SM BR SCT030
FM231100 VRB06KT P6SM SCT050


Example: see airport list